^^
Station Historical Data
Daily Summary for October 29, 2017 Units:  Both    English   Metric
« Previous Day
Next Day »
Daily Weekly Monthly Yearly Custom
  High: Low: Average:
Temperature: TemperatureF °F /  -17.8 °C 59.2 °F /  15.1 °C 70.1 °F /  21.2 °C
Dew Point: DewpointF °F /  -17.8 °C 34.3 °F /  1.3 °C 48.9 °F /  9.4 °C
Humidity: Humidity% 17% 53%
Wind Speed: WindSpeedMPHmph /  0km/h - 3.5mph /  5.6km/h
Wind Gust: WindSpeedGustMPHmph /  0km/h - -
Wind- - SSE
Pressure: PressureIn in /  0 hPa 30.01 in /  1016.1 hPa -
Precipitation: 0.20 in /  5.08 mm    
Historical Graphs
 
 
Tabular Data for October 29, 2017
Time Temperature Dew Point Pressure Wind Wind Speed Wind Gust Humidity Rainfall Rate (Hourly) solar Conditions
TemperatureF °F /  -17.8 °C DewpointF °F /  -17.8 °C PressureInin /  0hPa Calm     Humidity% HourlyPrecipInin /  0mm SolarRadiationWatts/m^2 W/m2 Conditions
00:01 68.9 °F /  20.5 °C 35.4 °F /  1.9 °C 30.06in /  1017.8hPa Calm   3.0mph /  4.8km/h 29% 0.00in /  0mm 0.0 W/m2
00:06 68.7 °F /  20.4 °C 35.2 °F /  1.8 °C 30.06in /  1017.8hPa Calm     29% 0.00in /  0mm 0.0 W/m2
00:11 68.5 °F /  20.3 °C 35.1 °F /  1.7 °C 30.06in /  1017.8hPa Calm     29% 0.00in /  0mm 0.0 W/m2
00:16 68.4 °F /  20.2 °C 34.9 °F /  1.6 °C 30.06in /  1017.8hPa Calm   3.0mph /  4.8km/h 29% 0.00in /  0mm 0.0 W/m2
00:21 68.2 °F /  20.1 °C 34.7 °F /  1.5 °C 30.06in /  1017.8hPa Calm     29% 0.00in /  0mm 0.0 W/m2
00:26 67.8 °F /  19.9 °C 34.3 °F /  1.3 °C 30.06in /  1017.8hPa Calm     29% 0.00in /  0mm 0.0 W/m2
00:31 67.6 °F /  19.8 °C 35.1 °F /  1.7 °C 30.06in /  1017.8hPa NNW 0.9mph /  1.4km/h 4.0mph /  6.4km/h 30% 0.00in /  0mm 0.0 W/m2
00:37 67.3 °F /  19.6 °C 34.7 °F /  1.5 °C 30.06in /  1017.8hPa NE 2.0mph /  3.2km/h 2.0mph /  3.2km/h 30% 0.00in /  0mm 0.0 W/m2
00:42 66.9 °F /  19.4 °C 34.5 °F /  1.4 °C 30.06in /  1017.8hPa Calm   1.0mph /  1.6km/h 30% 0.00in /  0mm 0.0 W/m2
00:47 66.9 °F /  19.4 °C 35.2 °F /  1.8 °C 30.06in /  1017.8hPa Calm     31% 0.00in /  0mm 0.0 W/m2
00:52 66.7 °F /  19.3 °C 35.1 °F /  1.7 °C 30.06in /  1017.8hPa Calm     31% 0.00in /  0mm 0.0 W/m2
00:57 66.6 °F /  19.2 °C 35.1 °F /  1.7 °C 30.06in /  1017.8hPa Calm   1.0mph /  1.6km/h 31% 0.00in /  0mm 0.0 W/m2
01:02 66.4 °F /  19.1 °C 34.9 °F /  1.6 °C 30.06in /  1017.8hPa Calm     31% 0.00in /  0mm 0.0 W/m2
01:07 66.4 °F /  19.1 °C 34.9 °F /  1.6 °C 30.06in /  1017.8hPa Calm   1.0mph /  1.6km/h 31% 0.00in /  0mm 0.0 W/m2
01:12 66.0 °F /  18.9 °C 34.5 °F /  1.4 °C 30.06in /  1017.8hPa Calm     31% 0.00in /  0mm 0.0 W/m2
01:17 66.0 °F /  18.9 °C 35.2 °F /  1.8 °C 30.06in /  1017.8hPa Calm     32% 0.00in /  0mm 0.0 W/m2
01:22 65.8 °F /  18.8 °C 35.2 °F /  1.8 °C 30.06in /  1017.8hPa Calm   1.0mph /  1.6km/h 32% 0.00in /  0mm 0.0 W/m2
01:27 65.7 °F /  18.7 °C 35.1 °F /  1.7 °C 30.06in /  1017.8hPa Calm     32% 0.00in /  0mm 0.0 W/m2
01:33 65.5 °F /  18.6 °C 34.9 °F /  1.6 °C 30.06in /  1017.8hPa Calm     32% 0.00in /  0mm 0.0 W/m2
01:38 65.3 °F /  18.5 °C 35.4 °F /  1.9 °C 30.06in /  1017.8hPa Calm     33% 0.00in /  0mm 0.0 W/m2
01:43 65.1 °F /  18.4 °C 35.2 °F /  1.8 °C 30.06in /  1017.8hPa Calm     33% 0.00in /  0mm 0.0 W/m2
01:48 64.8 °F /  18.2 °C 35.1 °F /  1.7 °C 30.07in /  1018.2hPa Calm     33% 0.00in /  0mm 0.0 W/m2
01:53 64.6 °F /  18.1 °C 34.9 °F /  1.6 °C 30.07in /  1018.2hPa Calm   1.0mph /  1.6km/h 33% 0.00in /  0mm 0.0 W/m2
01:58 64.2 °F /  17.9 °C 34.5 °F /  1.4 °C 30.08in /  1018.5hPa Calm   1.0mph /  1.6km/h 33% 0.00in /  0mm 0.0 W/m2
02:03 64.0 °F /  17.8 °C 37.2 °F /  2.9 °C 30.08in /  1018.5hPa ESE 0.9mph /  1.4km/h 7.0mph /  11.3km/h 37% 0.00in /  0mm 0.0 W/m2
02:08 64.0 °F /  17.8 °C 43.9 °F /  6.6 °C 30.08in /  1018.5hPa ENE 2.0mph /  3.2km/h 7.0mph /  11.3km/h 48% 0.00in /  0mm 0.0 W/m2
02:13 64.2 °F /  17.9 °C 45.1 °F /  7.3 °C 30.07in /  1018.2hPa ENE 4.9mph /  7.9km/h 9.0mph /  14.5km/h 50% 0.00in /  0mm 0.0 W/m2
02:18 64.2 °F /  17.9 °C 45.7 °F /  7.6 °C 30.08in /  1018.5hPa ENE 2.0mph /  3.2km/h 8.0mph /  12.9km/h 51% 0.00in /  0mm 0.0 W/m2
02:24 64.2 °F /  17.9 °C 46.2 °F /  7.9 °C 30.07in /  1018.2hPa Calm   6.0mph /  9.7km/h 52% 0.00in /  0mm 0.0 W/m2
02:29 64.0 °F /  17.8 °C 47.1 °F /  8.4 °C 30.07in /  1018.2hPa East 2.0mph /  3.2km/h 10.0mph /  16.1km/h 54% 0.00in /  0mm 0.0 W/m2
02:34 64.0 °F /  17.8 °C 48.0 °F /  8.9 °C 30.07in /  1018.2hPa East 6.9mph /  11.1km/h 12.0mph /  19.3km/h 56% 0.00in /  0mm 0.0 W/m2
02:39 63.9 °F /  17.7 °C 48.7 °F /  9.3 °C 30.07in /  1018.2hPa ENE 4.0mph /  6.4km/h 4.0mph /  6.4km/h 58% 0.00in /  0mm 0.0 W/m2
02:44 63.7 °F /  17.6 °C 49.1 °F /  9.5 °C 30.08in /  1018.5hPa Calm   11.0mph /  17.7km/h 59% 0.00in /  0mm 0.0 W/m2
02:49 63.3 °F /  17.4 °C 49.6 °F /  9.8 °C 30.08in /  1018.5hPa ENE 2.9mph /  4.7km/h 14.0mph /  22.5km/h 61% 0.00in /  0mm 0.0 W/m2
02:54 63.1 °F /  17.3 °C 49.5 °F /  9.7 °C 30.08in /  1018.5hPa Calm   7.0mph /  11.3km/h 61% 0.00in /  0mm 0.0 W/m2
02:59 63.0 °F /  17.2 °C 49.3 °F /  9.6 °C 30.08in /  1018.5hPa ENE 4.0mph /  6.4km/h 10.0mph /  16.1km/h 61% 0.00in /  0mm 0.0 W/m2
03:04 62.6 °F /  17 °C 49.5 °F /  9.7 °C 30.08in /  1018.5hPa NNE 4.9mph /  7.9km/h 13.0mph /  20.9km/h 62% 0.00in /  0mm 0.0 W/m2
03:10 62.4 °F /  16.9 °C 49.6 °F /  9.8 °C 30.09in /  1018.8hPa NE 2.0mph /  3.2km/h 8.0mph /  12.9km/h 63% 0.00in /  0mm 0.0 W/m2
03:15 62.2 °F /  16.8 °C 50.4 °F /  10.2 °C 30.09in /  1018.8hPa East 8.9mph /  14.3km/h 9.0mph /  14.5km/h 65% 0.00in /  0mm 0.0 W/m2
03:20 62.1 °F /  16.7 °C 50.5 °F /  10.3 °C 30.09in /  1018.8hPa East 2.0mph /  3.2km/h 13.0mph /  20.9km/h 66% 0.00in /  0mm 0.0 W/m2
03:25 61.9 °F /  16.6 °C 50.7 °F /  10.4 °C 30.09in /  1018.8hPa NE 4.9mph /  7.9km/h 14.0mph /  22.5km/h 67% 0.00in /  0mm 0.0 W/m2
03:30 61.7 °F /  16.5 °C 50.7 °F /  10.4 °C 30.09in /  1018.8hPa East 6.9mph /  11.1km/h 14.0mph /  22.5km/h 67% 0.00in /  0mm 0.0 W/m2
03:35 61.5 °F /  16.4 °C 50.9 °F /  10.5 °C 30.09in /  1018.8hPa NE 4.9mph /  7.9km/h 11.0mph /  17.7km/h 68% 0.00in /  0mm 0.0 W/m2
03:40 61.3 °F /  16.3 °C 51.4 °F /  10.8 °C 30.09in /  1018.8hPa ENE 8.9mph /  14.3km/h 17.0mph /  27.4km/h 70% 0.00in /  0mm 0.0 W/m2
03:45 61.2 °F /  16.2 °C 51.3 °F /  10.7 °C 30.10in /  1019.2hPa NE 6.9mph /  11.1km/h 11.0mph /  17.7km/h 70% 0.00in /  0mm 0.0 W/m2
03:50 61.0 °F /  16.1 °C 51.4 °F /  10.8 °C 30.10in /  1019.2hPa ENE 8.1mph /  13km/h 11.0mph /  17.7km/h 71% 0.00in /  0mm 0.0 W/m2
03:55 60.8 °F /  16 °C 51.3 °F /  10.7 °C 30.10in /  1019.2hPa East 6.0mph /  9.7km/h 10.0mph /  16.1km/h 71% 0.00in /  0mm 0.0 W/m2
04:01 60.6 °F /  15.9 °C 51.6 °F /  10.9 °C 30.10in /  1019.2hPa ESE 2.0mph /  3.2km/h 16.0mph /  25.7km/h 72% 0.00in /  0mm 0.0 W/m2
04:06 60.6 °F /  15.9 °C 51.6 °F /  10.9 °C 30.10in /  1019.2hPa ENE 11.0mph /  17.7km/h 14.0mph /  22.5km/h 72% 0.00in /  0mm 0.0 W/m2
04:11 60.4 °F /  15.8 °C 51.4 °F /  10.8 °C 30.10in /  1019.2hPa ENE 8.9mph /  14.3km/h 13.0mph /  20.9km/h 72% 0.00in /  0mm 0.0 W/m2
04:16 60.3 °F /  15.7 °C 51.6 °F /  10.9 °C 30.10in /  1019.2hPa NE 8.9mph /  14.3km/h 11.0mph /  17.7km/h 73% 0.00in /  0mm 0.0 W/m2
04:21 60.3 °F /  15.7 °C 51.6 °F /  10.9 °C 30.10in /  1019.2hPa East 6.0mph /  9.7km/h 11.0mph /  17.7km/h 73% 0.00in /  0mm 0.0 W/m2
04:26 60.3 °F /  15.7 °C 51.6 °F /  10.9 °C 30.10in /  1019.2hPa ESE 8.9mph /  14.3km/h 9.0mph /  14.5km/h 73% 0.00in /  0mm 0.0 W/m2
04:31 60.1 °F /  15.6 °C 51.4 °F /  10.8 °C 30.10in /  1019.2hPa SE 2.9mph /  4.7km/h 10.0mph /  16.1km/h 73% 0.00in /  0mm 0.0 W/m2
04:36 60.1 °F /  15.6 °C 51.8 °F /  11 °C 30.10in /  1019.2hPa ESE 2.9mph /  4.7km/h 12.0mph /  19.3km/h 74% 0.00in /  0mm 0.0 W/m2
04:41 60.1 °F /  15.6 °C 51.8 °F /  11 °C 30.10in /  1019.2hPa East 8.1mph /  13km/h 11.0mph /  17.7km/h 74% 0.00in /  0mm 0.0 W/m2
04:46 60.1 °F /  15.6 °C 51.8 °F /  11 °C 30.11in /  1019.5hPa East 8.1mph /  13km/h 11.0mph /  17.7km/h 74% 0.00in /  0mm 0.0 W/m2
04:52 60.1 °F /  15.6 °C 51.8 °F /  11 °C 30.11in /  1019.5hPa ENE 2.9mph /  4.7km/h 8.0mph /  12.9km/h 74% 0.00in /  0mm 0.0 W/m2
04:57 60.1 °F /  15.6 °C 51.8 °F /  11 °C 30.11in /  1019.5hPa NE 4.0mph /  6.4km/h 10.0mph /  16.1km/h 74% 0.00in /  0mm 0.0 W/m2
05:02 60.1 °F /  15.6 °C 51.8 °F /  11 °C 30.11in /  1019.5hPa NE 4.0mph /  6.4km/h 13.0mph /  20.9km/h 74% 0.00in /  0mm 0.0 W/m2
05:07 60.1 °F /  15.6 °C 51.8 °F /  11 °C 30.11in /  1019.5hPa ENE 0.9mph /  1.4km/h 13.0mph /  20.9km/h 74% 0.00in /  0mm 0.0 W/m2
05:14 60.1 °F /  15.6 °C 51.8 °F /  11 °C 30.11in /  1019.5hPa NE 2.9mph /  4.7km/h 9.0mph /  14.5km/h 74% 0.00in /  0mm 0.0 W/m2
05:20 60.1 °F /  15.6 °C 51.8 °F /  11 °C 30.10in /  1019.2hPa ENE 2.9mph /  4.7km/h 6.0mph /  9.7km/h 74% 0.00in /  0mm 0.0 W/m2
05:21 60.1 °F /  15.6 °C 51.8 °F /  11 °C 30.11in /  1019.5hPa SSE 4.0mph /  6.4km/h 8.0mph /  12.9km/h 74% 0.00in /  0mm 0.0 W/m2
05:24 60.1 °F /  15.6 °C 51.8 °F /  11 °C 30.11in /  1019.5hPa ENE 2.9mph /  4.7km/h 7.0mph /  11.3km/h 74% 0.00in /  0mm 0.0 W/m2
05:27 60.1 °F /  15.6 °C 52.2 °F /  11.2 °C 30.11in /  1019.5hPa NE 2.9mph /  4.7km/h 6.0mph /  9.7km/h 75% 0.00in /  0mm 0.0 W/m2
05:30 59.9 °F /  15.5 °C 52.0 °F /  11.1 °C 30.11in /  1019.5hPa Calm   6.0mph /  9.7km/h 75% 0.00in /  0mm 0.0 W/m2
05:36 59.9 °F /  15.5 °C 52.0 °F /  11.1 °C 30.11in /  1019.5hPa ENE 4.0mph /  6.4km/h 7.0mph /  11.3km/h 75% 0.00in /  0mm 0.0 W/m2
05:41 59.7 °F /  15.4 °C 51.8 °F /  11 °C 30.11in /  1019.5hPa Calm   5.0mph /  8km/h 75% 0.00in /  0mm 0.0 W/m2
05:46 59.7 °F /  15.4 °C 51.8 °F /  11 °C 30.11in /  1019.5hPa NE 6.0mph /  9.7km/h 7.0mph /  11.3km/h 75% 0.00in /  0mm 0.0 W/m2
05:52 59.5 °F /  15.3 °C 51.6 °F /  10.9 °C 30.11in /  1019.5hPa East 6.0mph /  9.7km/h 9.0mph /  14.5km/h 75% 0.00in /  0mm 0.0 W/m2
05:57 59.5 °F /  15.3 °C 51.6 °F /  10.9 °C 30.12in /  1019.9hPa ENE 4.0mph /  6.4km/h 11.0mph /  17.7km/h 75% 0.00in /  0mm 0.0 W/m2
06:02 59.5 °F /  15.3 °C 51.6 °F /  10.9 °C 30.11in /  1019.5hPa Calm   7.0mph /  11.3km/h 75% 0.00in /  0mm 0.0 W/m2
06:08 59.4 °F /  15.2 °C 51.1 °F /  10.6 °C 30.12in /  1019.9hPa Calm   4.0mph /  6.4km/h 74% 0.00in /  0mm 0.0 W/m2
06:13 59.4 °F /  15.2 °C 51.4 °F /  10.8 °C 30.12in /  1019.9hPa East 4.0mph /  6.4km/h 7.0mph /  11.3km/h 75% 0.00in /  0mm 0.0 W/m2
06:18 59.4 °F /  15.2 °C 51.4 °F /  10.8 °C 30.12in /  1019.9hPa Calm   10.0mph /  16.1km/h 75% 0.00in /  0mm 0.0 W/m2
06:23 59.2 °F /  15.1 °C 51.3 °F /  10.7 °C 30.12in /  1019.9hPa ENE 2.0mph /  3.2km/h 11.0mph /  17.7km/h 75% 0.00in /  0mm 7.0 W/m2
06:28 59.2 °F /  15.1 °C 51.3 °F /  10.7 °C 30.13in /  1020.2hPa Calm   7.0mph /  11.3km/h 75% 0.00in /  0mm 12.0 W/m2
06:30 59.2 °F /  15.1 °C 51.3 °F /  10.7 °C 30.13in /  1020.2hPa NE 2.0mph /  3.2km/h 7.0mph /  11.3km/h 75% 0.00in /  0mm 12.0 W/m2
06:36 59.2 °F /  15.1 °C 51.3 °F /  10.7 °C 30.14in /  1020.5hPa ENE 4.0mph /  6.4km/h 9.0mph /  14.5km/h 75% 0.00in /  0mm 16.0 W/m2
06:41 59.2 °F /  15.1 °C 51.3 °F /  10.7 °C 30.14in /  1020.5hPa SE 4.9mph /  7.9km/h 5.0mph /  8km/h 75% 0.00in /  0mm 19.0 W/m2
06:47 59.2 °F /  15.1 °C 51.6 °F /  10.9 °C 30.14in /  1020.5hPa East 2.9mph /  4.7km/h 9.0mph /  14.5km/h 76% 0.00in /  0mm 23.0 W/m2
06:52 59.4 °F /  15.2 °C 51.8 °F /  11 °C 30.14in /  1020.5hPa Calm   3.0mph /  4.8km/h 76% 0.00in /  0mm 26.0 W/m2
06:57 59.4 °F /  15.2 °C 51.8 °F /  11 °C 30.14in /  1020.5hPa NE 0.9mph /  1.4km/h 4.0mph /  6.4km/h 76% 0.00in /  0mm 30.0 W/m2
07:02 59.4 °F /  15.2 °C 51.8 °F /  11 °C 30.14in /  1020.5hPa ENE 2.9mph /  4.7km/h 4.0mph /  6.4km/h 76% 0.00in /  0mm 33.0 W/m2
07:07 59.5 °F /  15.3 °C 51.6 °F /  10.9 °C 30.14in /  1020.5hPa ENE 2.9mph /  4.7km/h 4.0mph /  6.4km/h 75% 0.00in /  0mm 39.0 W/m2
07:12 59.7 °F /  15.4 °C 51.8 °F /  11 °C 30.14in /  1020.5hPa Calm   6.0mph /  9.7km/h 75% 0.00in /  0mm 49.0 W/m2
07:17 60.1 °F /  15.6 °C 52.2 °F /  11.2 °C 30.15in /  1020.9hPa ENE 0.9mph /  1.4km/h 5.0mph /  8km/h 75% 0.00in /  0mm 53.0 W/m2
07:23 60.3 °F /  15.7 °C 52.0 °F /  11.1 °C 30.15in /  1020.9hPa NE 2.0mph /  3.2km/h 10.0mph /  16.1km/h 74% 0.00in /  0mm 51.0 W/m2
07:28 60.6 °F /  15.9 °C 52.0 °F /  11.1 °C 30.15in /  1020.9hPa East 2.0mph /  3.2km/h 7.0mph /  11.3km/h 73% 0.00in /  0mm 53.0 W/m2
07:33 61.0 °F /  16.1 °C 52.3 °F /  11.3 °C 30.15in /  1020.9hPa ENE 4.0mph /  6.4km/h 8.0mph /  12.9km/h 73% 0.00in /  0mm 60.0 W/m2
07:38 61.3 °F /  16.3 °C 52.2 °F /  11.2 °C 30.16in /  1021.2hPa NE 2.0mph /  3.2km/h 9.0mph /  14.5km/h 72% 0.00in /  0mm 76.0 W/m2
07:43 61.5 °F /  16.4 °C 52.0 °F /  11.1 °C 30.16in /  1021.2hPa ESE 6.9mph /  11.1km/h 10.0mph /  16.1km/h 71% 0.00in /  0mm 91.0 W/m2
07:48 62.1 °F /  16.7 °C 52.2 °F /  11.2 °C 30.16in /  1021.2hPa East 0.9mph /  1.4km/h 9.0mph /  14.5km/h 70% 0.00in /  0mm 98.0 W/m2
07:53 62.6 °F /  17 °C 52.3 °F /  11.3 °C 30.16in /  1021.2hPa NE 4.9mph /  7.9km/h 9.0mph /  14.5km/h 69% 0.00in /  0mm 98.0 W/m2
07:58 63.1 °F /  17.3 °C 52.3 °F /  11.3 °C 30.16in /  1021.2hPa Calm   5.0mph /  8km/h 68% 0.00in /  0mm 90.0 W/m2
08:03 63.3 °F /  17.4 °C 52.2 °F /  11.2 °C 30.16in /  1021.2hPa NNE 4.0mph /  6.4km/h 6.0mph /  9.7km/h 67% 0.00in /  0mm 90.0 W/m2
08:08 63.7 °F /  17.6 °C 52.2 °F /  11.2 °C 30.16in /  1021.2hPa Calm   7.0mph /  11.3km/h 66% 0.00in /  0mm 148.0 W/m2
08:14 64.0 °F /  17.8 °C 52.5 °F /  11.4 °C 30.16in /  1021.2hPa NNE 2.0mph /  3.2km/h 2.0mph /  3.2km/h 66% 0.00in /  0mm 424.0 W/m2
08:19 64.6 °F /  18.1 °C 52.2 °F /  11.2 °C 30.16in /  1021.2hPa ENE 2.0mph /  3.2km/h 9.0mph /  14.5km/h 64% 0.00in /  0mm 396.0 W/m2
08:22 64.8 °F /  18.2 °C 51.8 °F /  11 °C 30.16in /  1021.2hPa NNE 2.0mph /  3.2km/h 2.0mph /  3.2km/h 63% 0.00in /  0mm 169.0 W/m2
08:27 65.5 °F /  18.6 °C 51.6 °F /  10.9 °C 30.16in /  1021.2hPa NNW 2.9mph /  4.7km/h 7.0mph /  11.3km/h 61% 0.00in /  0mm 475.0 W/m2
08:32 66.6 °F /  19.2 °C 51.8 °F /  11 °C 30.16in /  1021.2hPa NNE 6.0mph /  9.7km/h 6.0mph /  9.7km/h 59% 0.00in /  0mm 490.0 W/m2
08:37 67.5 °F /  19.7 °C 51.6 °F /  10.9 °C 30.15in /  1020.9hPa North 0.9mph /  1.4km/h 5.0mph /  8km/h 57% 0.00in /  0mm 506.0 W/m2
08:42 68.4 °F /  20.2 °C 52.0 °F /  11.1 °C 30.16in /  1021.2hPa Calm   3.0mph /  4.8km/h 56% 0.00in /  0mm 529.0 W/m2
08:48 69.3 °F /  20.7 °C 52.0 °F /  11.1 °C 30.16in /  1021.2hPa NNW 2.9mph /  4.7km/h 7.0mph /  11.3km/h 54% 0.00in /  0mm 547.0 W/m2
08:53 70.0 °F /  21.1 °C 52.0 °F /  11.1 °C 30.16in /  1021.2hPa NNW 0.9mph /  1.4km/h 7.0mph /  11.3km/h 53% 0.00in /  0mm 561.0 W/m2
08:58 70.5 °F /  21.4 °C 52.0 °F /  11.1 °C 30.16in /  1021.2hPa NE 8.1mph /  13km/h 8.1mph /  13km/h 52% 0.00in /  0mm 578.0 W/m2
09:03 71.2 °F /  21.8 °C 52.2 °F /  11.2 °C 30.15in /  1020.9hPa Calm   5.0mph /  8km/h 51% 0.00in /  0mm 596.0 W/m2
09:08 71.8 °F /  22.1 °C 52.2 °F /  11.2 °C 30.15in /  1020.9hPa North 4.0mph /  6.4km/h 5.0mph /  8km/h 50% 0.00in /  0mm 612.0 W/m2
09:13 72.3 °F /  22.4 °C 52.2 °F /  11.2 °C 30.15in /  1020.9hPa NNE 4.0mph /  6.4km/h 5.0mph /  8km/h 49% 0.00in /  0mm 642.0 W/m2
09:18 72.9 °F /  22.7 °C 52.0 °F /  11.1 °C 30.15in /  1020.9hPa Calm   7.0mph /  11.3km/h 48% 0.00in /  0mm 657.0 W/m2
09:23 73.2 °F /  22.9 °C 52.3 °F /  11.3 °C 30.15in /  1020.9hPa North 2.0mph /  3.2km/h 8.0mph /  12.9km/h 48% 0.00in /  0mm 680.0 W/m2
09:28 73.9 °F /  23.3 °C 52.5 °F /  11.4 °C 30.15in /  1020.9hPa NNW 6.0mph /  9.7km/h 7.0mph /  11.3km/h 47% 0.00in /  0mm 701.0 W/m2
09:34 74.3 °F /  23.5 °C 52.2 °F /  11.2 °C 30.15in /  1020.9hPa NW 2.9mph /  4.7km/h 6.0mph /  9.7km/h 46% 0.00in /  0mm 707.0 W/m2
09:39 74.8 °F /  23.8 °C 52.2 °F /  11.2 °C 30.15in /  1020.9hPa NNW 2.0mph /  3.2km/h 4.0mph /  6.4km/h 45% 0.00in /  0mm 722.0 W/m2
09:44 75.2 °F /  24 °C 51.8 °F /  11 °C 30.15in /  1020.9hPa NNW 2.9mph /  4.7km/h 6.0mph /  9.7km/h 44% 0.00in /  0mm 737.0 W/m2
09:49 75.7 °F /  24.3 °C 52.3 °F /  11.3 °C 30.15in /  1020.9hPa NNE 4.9mph /  7.9km/h 8.0mph /  12.9km/h 44% 0.00in /  0mm 747.0 W/m2
09:54 75.9 °F /  24.4 °C 51.8 °F /  11 °C 30.15in /  1020.9hPa NNW 0.9mph /  1.4km/h 5.0mph /  8km/h 43% 0.00in /  0mm 759.0 W/m2
09:59 76.3 °F /  24.6 °C 52.2 °F /  11.2 °C 30.15in /  1020.9hPa North 4.0mph /  6.4km/h 6.0mph /  9.7km/h 43% 0.00in /  0mm 772.0 W/m2
10:04 76.6 °F /  24.8 °C 51.8 °F /  11 °C 30.15in /  1020.9hPa NW 8.1mph /  13km/h 9.0mph /  14.5km/h 42% 0.00in /  0mm 788.0 W/m2
10:09 77.0 °F /  25 °C 51.4 °F /  10.8 °C 30.14in /  1020.5hPa NNW 2.0mph /  3.2km/h 6.0mph /  9.7km/h 41% 0.00in /  0mm 802.0 W/m2
10:15 77.4 °F /  25.2 °C 51.8 °F /  11 °C 30.14in /  1020.5hPa NNW 8.1mph /  13km/h 11.0mph /  17.7km/h 41% 0.00in /  0mm 814.0 W/m2
10:20 77.7 °F /  25.4 °C 52.2 °F /  11.2 °C 30.14in /  1020.5hPa NNW 8.9mph /  14.3km/h 10.0mph /  16.1km/h 41% 0.00in /  0mm 826.0 W/m2
10:25 77.7 °F /  25.4 °C 51.4 °F /  10.8 °C 30.14in /  1020.5hPa North 2.9mph /  4.7km/h 7.0mph /  11.3km/h 40% 0.00in /  0mm 838.0 W/m2
10:30 78.1 °F /  25.6 °C 51.8 °F /  11 °C 30.14in /  1020.5hPa NNW 0.9mph /  1.4km/h 6.0mph /  9.7km/h 40% 0.00in /  0mm 853.0 W/m2
10:35 78.4 °F /  25.8 °C 51.4 °F /  10.8 °C 30.13in /  1020.2hPa North 4.9mph /  7.9km/h 7.0mph /  11.3km/h 39% 0.00in /  0mm 863.0 W/m2
10:40 78.8 °F /  26 °C 51.8 °F /  11 °C 30.13in /  1020.2hPa WSW 2.9mph /  4.7km/h 3.0mph /  4.8km/h 39% 0.00in /  0mm 870.0 W/m2
10:45 79.3 °F /  26.3 °C 51.4 °F /  10.8 °C 30.13in /  1020.2hPa North 8.1mph /  13km/h 11.0mph /  17.7km/h 38% 0.00in /  0mm 881.0 W/m2
10:50 79.5 °F /  26.4 °C 51.6 °F /  10.9 °C 30.13in /  1020.2hPa Calm   9.0mph /  14.5km/h 38% 0.00in /  0mm 895.0 W/m2
10:55 79.9 °F /  26.6 °C 51.3 °F /  10.7 °C 30.14in /  1020.5hPa North 4.9mph /  7.9km/h 8.0mph /  12.9km/h 37% 0.00in /  0mm 905.0 W/m2
11:01 79.9 °F /  26.6 °C 51.3 °F /  10.7 °C 30.13in /  1020.2hPa NNE 6.0mph /  9.7km/h 7.0mph /  11.3km/h 37% 0.00in /  0mm 912.0 W/m2
11:06 80.1 °F /  26.7 °C 51.4 °F /  10.8 °C 30.13in /  1020.2hPa Calm   11.0mph /  17.7km/h 37% 0.00in /  0mm 921.0 W/m2
11:11 80.8 °F /  27.1 °C 51.3 °F /  10.7 °C 30.13in /  1020.2hPa North 2.0mph /  3.2km/h 8.0mph /  12.9km/h 36% 0.00in /  0mm 928.0 W/m2
11:16 81.0 °F /  27.2 °C 51.4 °F /  10.8 °C 30.12in /  1019.9hPa WNW 4.0mph /  6.4km/h 9.0mph /  14.5km/h 36% 0.00in /  0mm 939.0 W/m2
11:22 81.0 °F /  27.2 °C 51.4 °F /  10.8 °C 30.12in /  1019.9hPa NNW 4.9mph /  7.9km/h 7.0mph /  11.3km/h 36% 0.00in /  0mm 944.0 W/m2
11:27 81.1 °F /  27.3 °C 50.9 °F /  10.5 °C 30.12in /  1019.9hPa WNW 10.1mph /  16.3km/h 12.0mph /  19.3km/h 35% 0.00in /  0mm 954.0 W/m2
11:32 81.3 °F /  27.4 °C 51.1 °F /  10.6 °C 30.12in /  1019.9hPa NNW 6.0mph /  9.7km/h 11.0mph /  17.7km/h 35% 0.00in /  0mm 960.0 W/m2
11:37 81.7 °F /  27.6 °C 50.5 °F /  10.3 °C 30.12in /  1019.9hPa West 4.9mph /  7.9km/h 6.0mph /  9.7km/h 34% 0.00in /  0mm 967.0 W/m2
11:42 81.9 °F /  27.7 °C 50.7 °F /  10.4 °C 30.12in /  1019.9hPa NNW 8.9mph /  14.3km/h 10.0mph /  16.1km/h 34% 0.00in /  0mm 969.0 W/m2
11:47 82.0 °F /  27.8 °C 50.9 °F /  10.5 °C 30.12in /  1019.9hPa West 2.0mph /  3.2km/h 7.0mph /  11.3km/h 34% 0.00in /  0mm 976.0 W/m2
11:53 82.6 °F /  28.1 °C 50.5 °F /  10.3 °C 30.12in /  1019.9hPa North 2.9mph /  4.7km/h 8.0mph /  12.9km/h 33% 0.00in /  0mm 974.0 W/m2
11:58 82.9 °F /  28.3 °C 50.9 °F /  10.5 °C 30.11in /  1019.5hPa WNW 2.0mph /  3.2km/h 7.0mph /  11.3km/h 33% 0.00in /  0mm 977.0 W/m2
12:03 83.3 °F /  28.5 °C 50.4 °F /  10.2 °C 30.11in /  1019.5hPa Calm   9.0mph /  14.5km/h 32% 0.00in /  0mm 986.0 W/m2
12:08 83.3 °F /  28.5 °C 50.4 °F /  10.2 °C 30.11in /  1019.5hPa North 4.0mph /  6.4km/h 9.0mph /  14.5km/h 32% 0.00in /  0mm 990.0 W/m2
12:13 83.7 °F /  28.7 °C 49.8 °F /  9.9 °C 30.11in /  1019.5hPa West 0.9mph /  1.4km/h 12.0mph /  19.3km/h 31% 0.00in /  0mm 1002.0 W/m2
12:18 84.0 °F /  28.9 °C 50.9 °F /  10.5 °C 30.11in /  1019.5hPa North 6.0mph /  9.7km/h 6.0mph /  9.7km/h 32% 0.00in /  0mm 991.0 W/m2
12:23 84.6 °F /  29.2 °C 49.6 °F /  9.8 °C 30.11in /  1019.5hPa Calm   10.0mph /  16.1km/h 30% 0.00in /  0mm 995.0 W/m2
12:28 84.6 °F /  29.2 °C 49.6 °F /  9.8 °C 30.11in /  1019.5hPa Calm   5.0mph /  8km/h 30% 0.00in /  0mm 998.0 W/m2
12:33 84.6 °F /  29.2 °C 49.6 °F /  9.8 °C 30.10in /  1019.2hPa NNE 4.0mph /  6.4km/h 14.0mph /  22.5km/h 30% 0.00in /  0mm 997.0 W/m2
12:38 84.7 °F /  29.3 °C 48.9 °F /  9.4 °C 30.10in /  1019.2hPa NNW 0.9mph /  1.4km/h 10.0mph /  16.1km/h 29% 0.00in /  0mm 1020.0 W/m2
12:44 84.7 °F /  29.3 °C 49.8 °F /  9.9 °C 30.10in /  1019.2hPa NNE 10.1mph /  16.3km/h 11.0mph /  17.7km/h 30% 0.00in /  0mm 1009.0 W/m2
12:49 84.7 °F /  29.3 °C 49.8 °F /  9.9 °C 30.10in /  1019.2hPa NNW 2.9mph /  4.7km/h 6.0mph /  9.7km/h 30% 0.00in /  0mm 1011.0 W/m2
12:54 84.9 °F /  29.4 °C 50.0 °F /  10 °C 30.09in /  1018.8hPa North 13.0mph /  20.9km/h 13.0mph /  20.9km/h 30% 0.00in /  0mm 1025.0 W/m2
12:59 85.5 °F /  29.7 °C 49.6 °F /  9.8 °C 30.10in /  1019.2hPa NNE 6.9mph /  11.1km/h 9.0mph /  14.5km/h 29% 0.00in /  0mm 1000.0 W/m2
13:04 85.8 °F /  29.9 °C 48.9 °F /  9.4 °C 30.09in /  1018.8hPa NW 4.0mph /  6.4km/h 9.0mph /  14.5km/h 28% 0.00in /  0mm 997.0 W/m2
13:09 85.6 °F /  29.8 °C 48.7 °F /  9.3 °C 30.09in /  1018.8hPa WNW 0.9mph /  1.4km/h 7.0mph /  11.3km/h 28% 0.00in /  0mm 998.0 W/m2
13:14 85.8 °F /  29.9 °C 48.9 °F /  9.4 °C 30.09in /  1018.8hPa Calm   9.0mph /  14.5km/h 28% 0.00in /  0mm 998.0 W/m2
13:19 85.8 °F /  29.9 °C 48.9 °F /  9.4 °C 30.09in /  1018.8hPa NNW 0.9mph /  1.4km/h 9.0mph /  14.5km/h 28% 0.00in /  0mm 990.0 W/m2
13:24 85.6 °F /  29.8 °C 48.7 °F /  9.3 °C 30.09in /  1018.8hPa WNW 2.0mph /  3.2km/h 11.0mph /  17.7km/h 28% 0.00in /  0mm 1005.0 W/m2
13:30 85.8 °F /  29.9 °C 48.9 °F /  9.4 °C 30.09in /  1018.8hPa NNW 6.0mph /  9.7km/h 11.0mph /  17.7km/h 28% 0.00in /  0mm 986.0 W/m2
13:35 86.2 °F /  30.1 °C 49.3 °F /  9.6 °C 30.08in /  1018.5hPa West 0.9mph /  1.4km/h 9.0mph /  14.5km/h 28% 0.00in /  0mm 969.0 W/m2
13:40 86.7 °F /  30.4 °C 48.7 °F /  9.3 °C 30.08in /  1018.5hPa ENE 6.9mph /  11.1km/h 10.0mph /  16.1km/h 27% 0.00in /  0mm 979.0 W/m2
13:46 87.3 °F /  30.7 °C 49.3 °F /  9.6 °C 30.07in /  1018.2hPa WSW 2.9mph /  4.7km/h 5.0mph /  8km/h 27% 0.00in /  0mm 1011.0 W/m2
13:51 87.3 °F /  30.7 °C 48.2 °F /  9 °C 30.07in /  1018.2hPa WNW 6.9mph /  11.1km/h 7.0mph /  11.3km/h 26% 0.00in /  0mm 1005.0 W/m2
13:56 87.3 °F /  30.7 °C 49.3 °F /  9.6 °C 30.07in /  1018.2hPa SW 0.9mph /  1.4km/h 7.0mph /  11.3km/h 27% 0.00in /  0mm 984.0 W/m2
14:01 87.1 °F /  30.6 °C 48.0 °F /  8.9 °C 30.07in /  1018.2hPa West 4.9mph /  7.9km/h 8.0mph /  12.9km/h 26% 0.00in /  0mm 958.0 W/m2
14:06 87.3 °F /  30.7 °C 49.3 °F /  9.6 °C 30.06in /  1017.8hPa NW 4.9mph /  7.9km/h 13.0mph /  20.9km/h 27% 0.00in /  0mm 939.0 W/m2
14:12 87.4 °F /  30.8 °C 48.4 °F /  9.1 °C 30.06in /  1017.8hPa North 2.9mph /  4.7km/h 11.0mph /  17.7km/h 26% 0.00in /  0mm 921.0 W/m2
14:17 87.4 °F /  30.8 °C 48.4 °F /  9.1 °C 30.06in /  1017.8hPa West 2.9mph /  4.7km/h 5.0mph /  8km/h 26% 0.00in /  0mm 918.0 W/m2
14:22 88.0 °F /  31.1 °C 47.8 °F /  8.8 °C 30.06in /  1017.8hPa NNW 6.9mph /  11.1km/h 10.0mph /  16.1km/h 25% 0.00in /  0mm 909.0 W/m2
14:27 88.5 °F /  31.4 °C 48.2 °F /  9 °C 30.05in /  1017.5hPa SW 2.0mph /  3.2km/h 5.0mph /  8km/h 25% 0.00in /  0mm 907.0 W/m2
14:33 89.1 °F /  31.7 °C 47.7 °F /  8.7 °C 30.05in /  1017.5hPa NW 6.0mph /  9.7km/h 11.0mph /  17.7km/h 24% 0.00in /  0mm 916.0 W/m2
14:38 88.9 °F /  31.6 °C 47.5 °F /  8.6 °C 30.05in /  1017.5hPa North 4.9mph /  7.9km/h 13.0mph /  20.9km/h 24% 0.00in /  0mm 889.0 W/m2
14:43 88.7 °F /  31.5 °C 47.3 °F /  8.5 °C 30.05in /  1017.5hPa NE 0.9mph /  1.4km/h 8.0mph /  12.9km/h 24% 0.00in /  0mm 870.0 W/m2
14:48 88.9 °F /  31.6 °C 47.5 °F /  8.6 °C 30.04in /  1017.2hPa NNW 2.0mph /  3.2km/h 6.0mph /  9.7km/h 24% 0.00in /  0mm 854.0 W/m2
14:53 88.9 °F /  31.6 °C 45.1 °F /  7.3 °C 30.04in /  1017.2hPa NNW 4.9mph /  7.9km/h 10.0mph /  16.1km/h 22% 0.00in /  0mm 844.0 W/m2
14:58 89.1 °F /  31.7 °C 45.3 °F /  7.4 °C 30.04in /  1017.2hPa NW 2.0mph /  3.2km/h 11.0mph /  17.7km/h 22% 0.00in /  0mm 844.0 W/m2
15:04 89.4 °F /  31.9 °C 45.5 °F /  7.5 °C 30.04in /  1017.2hPa North 0.9mph /  1.4km/h 9.0mph /  14.5km/h 22% 0.00in /  0mm 831.0 W/m2
15:09 88.9 °F /  31.6 °C 45.1 °F /  7.3 °C 30.03in /  1016.8hPa NNW 2.9mph /  4.7km/h 12.0mph /  19.3km/h 22% 0.00in /  0mm 840.0 W/m2
15:14 88.7 °F /  31.5 °C 45.0 °F /  7.2 °C 30.03in /  1016.8hPa WNW 4.0mph /  6.4km/h 7.0mph /  11.3km/h 22% 0.00in /  0mm 849.0 W/m2
15:19 89.1 °F /  31.7 °C 45.3 °F /  7.4 °C 30.03in /  1016.8hPa NNE 4.9mph /  7.9km/h 12.0mph /  19.3km/h 22% 0.00in /  0mm 847.0 W/m2
15:24 89.2 °F /  31.8 °C 44.2 °F /  6.8 °C 30.03in /  1016.8hPa NW 2.0mph /  3.2km/h 8.0mph /  12.9km/h 21% 0.00in /  0mm 821.0 W/m2
15:29 89.8 °F /  32.1 °C 44.6 °F /  7 °C 30.02in /  1016.5hPa West 4.9mph /  7.9km/h 7.0mph /  11.3km/h 21% 0.00in /  0mm 793.0 W/m2
15:34 89.4 °F /  31.9 °C 44.4 °F /  6.9 °C 30.02in /  1016.5hPa NNW 2.0mph /  3.2km/h 8.0mph /  12.9km/h 21% 0.00in /  0mm 786.0 W/m2
15:39 89.8 °F /  32.1 °C 44.6 °F /  7 °C 30.02in /  1016.5hPa North 4.0mph /  6.4km/h 7.0mph /  11.3km/h 21% 0.00in /  0mm 775.0 W/m2
15:44 89.8 °F /  32.1 °C 43.3 °F /  6.3 °C 30.02in /  1016.5hPa NNE 2.9mph /  4.7km/h 10.0mph /  16.1km/h 20% 0.00in /  0mm 809.0 W/m2
15:50 89.6 °F /  32 °C 41.9 °F /  5.5 °C 30.02in /  1016.5hPa WNW 0.9mph /  1.4km/h 7.0mph /  11.3km/h 19% 0.00in /  0mm 246.0 W/m2
15:55 88.9 °F /  31.6 °C 42.6 °F /  5.9 °C 30.02in /  1016.5hPa WNW 0.9mph /  1.4km/h 1.0mph /  1.6km/h 20% 0.00in /  0mm 206.0 W/m2
16:01 88.2 °F /  31.2 °C 42.1 °F /  5.6 °C 30.02in /  1016.5hPa North 2.0mph /  3.2km/h 8.0mph /  12.9km/h 20% 0.00in /  0mm 415.0 W/m2
16:06 87.8 °F /  31 °C 43.0 °F /  6.1 °C 30.01in /  1016.1hPa SE 2.0mph /  3.2km/h 2.0mph /  3.2km/h 21% 0.00in /  0mm 805.0 W/m2
16:11 88.0 °F /  31.1 °C 41.9 °F /  5.5 °C 30.02in /  1016.5hPa NE 2.9mph /  4.7km/h 4.0mph /  6.4km/h 20% 0.00in /  0mm 613.0 W/m2
16:16 88.2 °F /  31.2 °C 42.1 °F /  5.6 °C 30.01in /  1016.1hPa NNW 2.9mph /  4.7km/h 8.0mph /  12.9km/h 20% 0.00in /  0mm 459.0 W/m2
16:21 88.2 °F /  31.2 °C 42.1 °F /  5.6 °C 30.01in /  1016.1hPa North 6.0mph /  9.7km/h 6.0mph /  9.7km/h 20% 0.00in /  0mm 411.0 W/m2
16:26 88.2 °F /  31.2 °C 42.1 °F /  5.6 °C 30.01in /  1016.1hPa NW 2.0mph /  3.2km/h 10.0mph /  16.1km/h 20% 0.00in /  0mm 353.0 W/m2
16:31 88.0 °F /  31.1 °C 40.6 °F /  4.8 °C 30.01in /  1016.1hPa West 0.9mph /  1.4km/h 7.0mph /  11.3km/h 19% 0.00in /  0mm 262.0 W/m2
16:37 87.6 °F /  30.9 °C 40.3 °F /  4.6 °C 30.01in /  1016.1hPa WNW 2.9mph /  4.7km/h 8.0mph /  12.9km/h 19% 0.00in /  0mm 244.0 W/m2
16:42 87.3 °F /  30.7 °C 37.2 °F /  2.9 °C 30.02in /  1016.5hPa Calm   1.0mph /  1.6km/h 17% 0.00in /  0mm 276.0 W/m2
16:47 87.3 °F /  30.7 °C 38.7 °F /  3.7 °C 30.02in /  1016.5hPa Calm   2.0mph /  3.2km/h 18% 0.00in /  0mm 243.0 W/m2
16:52 87.4 °F /  30.8 °C 40.1 °F /  4.5 °C 30.03in /  1016.8hPa NNE 4.0mph /  6.4km/h 6.0mph /  9.7km/h 19% 0.00in /  0mm 207.0 W/m2
16:57 86.4 °F /  30.2 °C 40.6 °F /  4.8 °C 30.03in /  1016.8hPa East 6.9mph /  11.1km/h 11.0mph /  17.7km/h 20% 0.00in /  0mm 169.0 W/m2
17:02 85.3 °F /  29.6 °C 42.1 °F /  5.6 °C 30.03in /  1016.8hPa ESE 8.1mph /  13km/h 14.0mph /  22.5km/h 22% 0.00in /  0mm 127.0 W/m2
17:07 84.2 °F /  29 °C 37.4 °F /  3 °C 30.03in /  1016.8hPa ENE 6.9mph /  11.1km/h 15.0mph /  24.1km/h 19% 0.00in /  0mm 97.0 W/m2
17:13 83.1 °F /  28.4 °C 36.7 °F /  2.6 °C 30.03in /  1016.8hPa ENE 2.9mph /  4.7km/h 7.0mph /  11.3km/h 19% 0.00in /  0mm 72.0 W/m2
17:18 82.6 °F /  28.1 °C 37.4 °F /  3 °C 30.03in /  1016.8hPa ESE 4.0mph /  6.4km/h 8.0mph /  12.9km/h 20% 0.00in /  0mm 54.0 W/m2
17:23 82.0 °F /  27.8 °C 37.0 °F /  2.8 °C 30.03in /  1016.8hPa East 4.9mph /  7.9km/h 12.0mph /  19.3km/h 20% 0.00in /  0mm 42.0 W/m2
17:28 81.9 °F /  27.7 °C 38.1 °F /  3.4 °C 30.03in /  1016.8hPa SSE 4.9mph /  7.9km/h 7.0mph /  11.3km/h 21% 0.00in /  0mm 32.0 W/m2
17:34 81.5 °F /  27.5 °C 41.2 °F /  5.1 °C 30.04in /  1017.2hPa ESE 4.0mph /  6.4km/h 13.0mph /  20.9km/h 24% 0.00in /  0mm 19.0 W/m2
17:39 80.8 °F /  27.1 °C 44.6 °F /  7 °C 30.05in /  1017.5hPa SSE 8.1mph /  13km/h 13.0mph /  20.9km/h 28% 0.00in /  0mm 12.0 W/m2
17:44 79.7 °F /  26.5 °C 45.5 °F /  7.5 °C 30.06in /  1017.8hPa SW 8.9mph /  14.3km/h 16.0mph /  25.7km/h 30% 0.00in /  0mm 11.0 W/m2
17:49 78.3 °F /  25.7 °C 46.0 °F /  7.8 °C 30.06in /  1017.8hPa SE 6.9mph /  11.1km/h 14.0mph /  22.5km/h 32% 0.00in /  0mm 14.0 W/m2
17:54 77.4 °F /  25.2 °C 46.8 °F /  8.2 °C 30.07in /  1018.2hPa SE 17.9mph /  28.8km/h 18.0mph /  29km/h 34% 0.00in /  0mm 16.0 W/m2
17:59 76.6 °F /  24.8 °C 46.9 °F /  8.3 °C 30.08in /  1018.5hPa SE 8.1mph /  13km/h 17.0mph /  27.4km/h 35% 0.00in /  0mm 12.0 W/m2
18:04 75.9 °F /  24.4 °C 47.1 °F /  8.4 °C 30.07in /  1018.2hPa ESE 8.9mph /  14.3km/h 17.0mph /  27.4km/h 36% 0.00in /  0mm 18.0 W/m2
18:09 75.4 °F /  24.1 °C 48.7 °F /  9.3 °C 30.07in /  1018.2hPa ESE 6.9mph /  11.1km/h 14.0mph /  22.5km/h 39% 0.00in /  0mm 16.0 W/m2
18:15 74.7 °F /  23.7 °C 49.5 °F /  9.7 °C 30.07in /  1018.2hPa SSE 8.1mph /  13km/h 15.0mph /  24.1km/h 41% 0.00in /  0mm 18.0 W/m2
18:20 73.6 °F /  23.1 °C 50.4 °F /  10.2 °C 30.06in /  1017.8hPa SSE 6.0mph /  9.7km/h 15.0mph /  24.1km/h 44% 0.00in /  0mm 19.0 W/m2
18:25 72.3 °F /  22.4 °C 50.4 °F /  10.2 °C 30.06in /  1017.8hPa SE 10.1mph /  16.3km/h 16.0mph /  25.7km/h 46% 0.00in /  0mm 14.0 W/m2
18:30 71.8 °F /  22.1 °C 49.8 °F /  9.9 °C 30.07in /  1018.2hPa SE 0.9mph /  1.4km/h 8.0mph /  12.9km/h 46% 0.00in /  0mm 7.0 W/m2
18:35 71.4 °F /  21.9 °C 48.9 °F /  9.4 °C 30.08in /  1018.5hPa ESE 6.9mph /  11.1km/h 10.0mph /  16.1km/h 45% 0.00in /  0mm 5.0 W/m2
18:40 71.6 °F /  22 °C 49.1 °F /  9.5 °C 30.10in /  1019.2hPa WSW 0.9mph /  1.4km/h 6.0mph /  9.7km/h 45% 0.00in /  0mm 0.0 W/m2
18:45 71.4 °F /  21.9 °C 48.9 °F /  9.4 °C 30.12in /  1019.9hPa WSW 8.1mph /  13km/h 11.0mph /  17.7km/h 45% 0.00in /  0mm 0.0 W/m2
18:50 70.3 °F /  21.3 °C 52.3 °F /  11.3 °C 30.14in /  1020.5hPa West 8.9mph /  14.3km/h 22.0mph /  35.4km/h 53% 0.00in /  0mm 0.0 W/m2
18:55 66.7 °F /  19.3 °C 52.9 °F /  11.6 °C 30.17in /  1021.6hPa WSW 6.9mph /  11.1km/h 14.0mph /  22.5km/h 61% 0.02in /  0.51mm 0.0 W/m2
19:01 64.2 °F /  17.9 °C 53.4 °F /  11.9 °C 30.17in /  1021.6hPa SW 2.9mph /  4.7km/h 9.0mph /  14.5km/h 68% 0.05in /  1.27mm 0.0 W/m2
19:06 62.6 °F /  17 °C 53.4 °F /  11.9 °C 30.18in /  1021.9hPa Calm   2.0mph /  3.2km/h 72% 0.09in /  2.29mm 0.0 W/m2
19:11 61.5 °F /  16.4 °C 54.0 °F /  12.2 °C 30.18in /  1021.9hPa Calm     76% 0.12in /  3.05mm 0.0 W/m2
19:16 60.8 °F /  16 °C 53.6 °F /  12 °C 30.18in /  1021.9hPa Calm     77% 0.13in /  3.3mm 0.0 W/m2
19:21 60.3 °F /  15.7 °C 54.3 °F /  12.4 °C 30.18in /  1021.9hPa Calm     81% 0.15in /  3.81mm 0.0 W/m2
19:26 60.1 °F /  15.6 °C 54.5 °F /  12.5 °C 30.18in /  1021.9hPa Calm     82% 0.15in /  3.81mm 0.0 W/m2
19:31 59.9 °F /  15.5 °C 55.4 °F /  13 °C 30.18in /  1021.9hPa Calm     85% 0.17in /  4.32mm 0.0 W/m2
19:36 60.1 °F /  15.6 °C 56.1 °F /  13.4 °C 30.18in /  1021.9hPa Calm   1.0mph /  1.6km/h 87% 0.17in /  4.32mm 0.0 W/m2
19:41 60.1 °F /  15.6 °C 56.1 °F /  13.4 °C 30.19in /  1022.2hPa Calm   1.0mph /  1.6km/h 87% 0.17in /  4.32mm 0.0 W/m2
19:46 60.1 °F /  15.6 °C 56.1 °F /  13.4 °C 30.19in /  1022.2hPa NE 0.9mph /  1.4km/h 5.0mph /  8km/h 87% 0.17in /  4.32mm 0.0 W/m2
19:51 60.3 °F /  15.7 °C 56.7 °F /  13.7 °C 30.18in /  1021.9hPa ESE 2.9mph /  4.7km/h 6.0mph /  9.7km/h 88% 0.18in /  4.57mm 0.0 W/m2
19:57 60.1 °F /  15.6 °C 56.1 °F /  13.4 °C 30.17in /  1021.6hPa East 0.9mph /  1.4km/h 5.0mph /  8km/h 87% 0.17in /  4.32mm 0.0 W/m2
20:02 59.9 °F /  15.5 °C 55.9 °F /  13.3 °C 30.16in /  1021.2hPa ESE 6.0mph /  9.7km/h 6.0mph /  9.7km/h 87% 0.13in /  3.3mm 0.0 W/m2
20:07 59.7 °F /  15.4 °C 56.1 °F /  13.4 °C 30.15in /  1020.9hPa East 2.9mph /  4.7km/h 7.0mph /  11.3km/h 88% 0.09in /  2.29mm 0.0 W/m2
20:12 59.5 °F /  15.3 °C 55.4 °F /  13 °C 30.15in /  1020.9hPa SE 2.0mph /  3.2km/h 7.0mph /  11.3km/h 86% 0.08in /  2.03mm 0.0 W/m2
20:17 59.5 °F /  15.3 °C 55.6 °F /  13.1 °C 30.16in /  1021.2hPa Calm   9.0mph /  14.5km/h 87% 0.07in /  1.78mm 0.0 W/m2
20:22 59.5 °F /  15.3 °C 55.6 °F /  13.1 °C 30.15in /  1020.9hPa ESE 2.9mph /  4.7km/h 7.0mph /  11.3km/h 87% 0.06in /  1.52mm 0.0 W/m2
20:27 59.5 °F /  15.3 °C 55.6 °F /  13.1 °C 30.15in /  1020.9hPa NNE 2.9mph /  4.7km/h 6.0mph /  9.7km/h 87% 0.05in /  1.27mm 0.0 W/m2
20:32 59.5 °F /  15.3 °C 55.6 °F /  13.1 °C 30.16in /  1021.2hPa NE 4.0mph /  6.4km/h 7.0mph /  11.3km/h 87% 0.04in /  1.02mm 0.0 W/m2
20:38 59.5 °F /  15.3 °C 55.4 °F /  13 °C 30.16in /  1021.2hPa Calm   6.0mph /  9.7km/h 86% 0.04in /  1.02mm 0.0 W/m2
20:43 59.7 °F /  15.4 °C 55.6 °F /  13.1 °C 30.17in /  1021.6hPa SSW 0.9mph /  1.4km/h 1.0mph /  1.6km/h 86% 0.03in /  0.76mm 0.0 W/m2
20:48 59.7 °F /  15.4 °C 55.6 °F /  13.1 °C 30.17in /  1021.6hPa Calm     86% 0.02in /  0.51mm 0.0 W/m2
20:53 59.7 °F /  15.4 °C 55.6 °F /  13.1 °C 30.17in /  1021.6hPa SE 2.0mph /  3.2km/h 4.0mph /  6.4km/h 86% 0.02in /  0.51mm 0.0 W/m2
20:58 59.7 °F /  15.4 °C 55.2 °F /  12.9 °C 30.18in /  1021.9hPa SSE 4.9mph /  7.9km/h 5.0mph /  8km/h 85% 0.02in /  0.51mm 0.0 W/m2
21:03 59.7 °F /  15.4 °C 55.6 °F /  13.1 °C 30.19in /  1022.2hPa Calm     86% 0.01in /  0.25mm 0.0 W/m2
21:08 59.9 °F /  15.5 °C 55.9 °F /  13.3 °C 30.18in /  1021.9hPa North 4.0mph /  6.4km/h 5.0mph /  8km/h 87% 0.01in /  0.25mm 0.0 W/m2
21:13 60.1 °F /  15.6 °C 55.9 °F /  13.3 °C 30.18in /  1021.9hPa NNE 2.0mph /  3.2km/h 5.0mph /  8km/h 86% 0.00in /  0mm 0.0 W/m2
21:18 60.1 °F /  15.6 °C 55.9 °F /  13.3 °C 30.19in /  1022.2hPa NE 4.0mph /  6.4km/h 4.0mph /  6.4km/h 86% 0.00in /  0mm 0.0 W/m2
21:24 60.1 °F /  15.6 °C 55.9 °F /  13.3 °C 30.20in /  1022.6hPa ENE 0.9mph /  1.4km/h 6.0mph /  9.7km/h 86% 0.00in /  0mm 0.0 W/m2
21:29 60.1 °F /  15.6 °C 55.9 °F /  13.3 °C 30.20in /  1022.6hPa Calm   1.0mph /  1.6km/h 86% 0.00in /  0mm 0.0 W/m2
21:34 60.3 °F /  15.7 °C 56.3 °F /  13.5 °C 30.20in /  1022.6hPa SE 4.9mph /  7.9km/h 7.0mph /  11.3km/h 87% 0.00in /  0mm 0.0 W/m2
21:39 60.3 °F /  15.7 °C 55.8 °F /  13.2 °C 30.19in /  1022.2hPa SE 2.0mph /  3.2km/h 8.0mph /  12.9km/h 85% 0.00in /  0mm 0.0 W/m2
21:44 60.4 °F /  15.8 °C 54.5 °F /  12.5 °C 30.20in /  1022.6hPa NE 4.9mph /  7.9km/h 6.0mph /  9.7km/h 81% 0.00in /  0mm 0.0 W/m2
21:49 61.0 °F /  16.1 °C 55.4 °F /  13 °C 30.21in /  1022.9hPa ESE 4.9mph /  7.9km/h 8.0mph /  12.9km/h 82% 0.00in /  0mm 0.0 W/m2
21:54 61.2 °F /  16.2 °C 54.9 °F /  12.7 °C 30.22in /  1023.2hPa Calm   3.0mph /  4.8km/h 80% 0.00in /  0mm 0.0 W/m2
21:59 61.3 °F /  16.3 °C 55.4 °F /  13 °C 30.22in /  1023.2hPa East 4.0mph /  6.4km/h 9.0mph /  14.5km/h 81% 0.00in /  0mm 0.0 W/m2
22:04 61.3 °F /  16.3 °C 55.0 °F /  12.8 °C 30.22in /  1023.2hPa NE 4.9mph /  7.9km/h 10.0mph /  16.1km/h 80% 0.00in /  0mm 0.0 W/m2
22:10 61.5 °F /  16.4 °C 55.6 °F /  13.1 °C 30.22in /  1023.2hPa NNE 2.0mph /  3.2km/h 13.0mph /  20.9km/h 81% 0.00in /  0mm 0.0 W/m2
22:15 61.3 °F /  16.3 °C 54.9 °F /  12.7 °C 30.22in /  1023.2hPa ENE 8.9mph /  14.3km/h 15.0mph /  24.1km/h 79% 0.00in /  0mm 0.0 W/m2
22:20 61.3 °F /  16.3 °C 54.5 °F /  12.5 °C 30.22in /  1023.2hPa ESE 4.9mph /  7.9km/h 13.0mph /  20.9km/h 78% 0.00in /  0mm 0.0 W/m2
22:25 61.3 °F /  16.3 °C 54.9 °F /  12.7 °C 30.22in /  1023.2hPa ESE 8.9mph /  14.3km/h 17.0mph /  27.4km/h 79% 0.00in /  0mm 0.0 W/m2
22:30 61.2 °F /  16.2 °C 54.9 °F /  12.7 °C 30.21in /  1022.9hPa East 12.1mph /  19.5km/h 14.0mph /  22.5km/h 80% 0.00in /  0mm 0.0 W/m2
22:35 61.0 °F /  16.1 °C 55.0 °F /  12.8 °C 30.21in /  1022.9hPa East 8.1mph /  13km/h 13.0mph /  20.9km/h 81% 0.00in /  0mm 0.0 W/m2
22:40 60.6 °F /  15.9 °C 55.0 °F /  12.8 °C 30.21in /  1022.9hPa ENE 8.9mph /  14.3km/h 17.0mph /  27.4km/h 82% 0.00in /  0mm 0.0 W/m2
22:45 60.4 °F /  15.8 °C 54.9 °F /  12.7 °C 30.21in /  1022.9hPa ENE 8.9mph /  14.3km/h 13.0mph /  20.9km/h 82% 0.00in /  0mm 0.0 W/m2
22:50 60.3 °F /  15.7 °C 54.7 °F /  12.6 °C 30.20in /  1022.6hPa ESE 8.9mph /  14.3km/h 11.0mph /  17.7km/h 82% 0.00in /  0mm 0.0 W/m2
22:56 60.1 °F /  15.6 °C 54.5 °F /  12.5 °C 30.20in /  1022.6hPa ESE 4.9mph /  7.9km/h 12.0mph /  19.3km/h 82% 0.00in /  0mm 0.0 W/m2
23:02 60.1 °F /  15.6 °C 54.3 °F /  12.4 °C 30.20in /  1022.6hPa ENE 4.0mph /  6.4km/h 13.0mph /  20.9km/h 81% 0.00in /  0mm 0.0 W/m2
23:07 60.1 °F /  15.6 °C 54.0 °F /  12.2 °C 30.20in /  1022.6hPa ESE 8.1mph /  13km/h 13.0mph /  20.9km/h 80% 0.00in /  0mm 0.0 W/m2
23:12 60.1 °F /  15.6 °C 54.0 °F /  12.2 °C 30.20in /  1022.6hPa NE 13.0mph /  20.9km/h 13.0mph /  20.9km/h 80% 0.00in /  0mm 0.0 W/m2
23:17 60.1 °F /  15.6 °C 54.0 °F /  12.2 °C 30.21in /  1022.9hPa ESE 6.9mph /  11.1km/h 11.0mph /  17.7km/h 80% 0.00in /  0mm 0.0 W/m2
23:22 60.1 °F /  15.6 °C 54.0 °F /  12.2 °C 30.22in /  1023.2hPa East 6.9mph /  11.1km/h 11.0mph /  17.7km/h 80% 0.00in /  0mm 0.0 W/m2
23:27 60.1 °F /  15.6 °C 53.2 °F /  11.8 °C 30.23in /  1023.6hPa SSW 4.9mph /  7.9km/h 7.0mph /  11.3km/h 78% 0.00in /  0mm 0.0 W/m2
23:32 60.4 °F /  15.8 °C 52.9 °F /  11.6 °C 30.23in /  1023.6hPa SE 10.1mph /  16.3km/h 10.1mph /  16.3km/h 76% 0.00in /  0mm 0.0 W/m2
23:37 60.6 °F /  15.9 °C 52.7 °F /  11.5 °C 30.24in /  1023.9hPa East 6.0mph /  9.7km/h 6.0mph /  9.7km/h 75% 0.00in /  0mm 0.0 W/m2
23:43 61.0 °F /  16.1 °C 53.4 °F /  11.9 °C 30.24in /  1023.9hPa NE 4.0mph /  6.4km/h 8.0mph /  12.9km/h 76% 0.00in /  0mm 0.0 W/m2
23:48 61.0 °F /  16.1 °C 53.1 °F /  11.7 °C 30.24in /  1023.9hPa ENE 4.0mph /  6.4km/h 8.0mph /  12.9km/h 75% 0.00in /  0mm 0.0 W/m2
23:54 61.2 °F /  16.2 °C 53.6 °F /  12 °C 30.25in /  1024.3hPa NNE 6.0mph /  9.7km/h 10.0mph /  16.1km/h 76% 0.00in /  0mm 0.0 W/m2
Olympia, Windhoek, Namibia
Compliments of Weather Underground - 3.25 mb